Time;durP1;ratioP1;P1;durP2;ratioP2;P2;SDS_P1;SDS_P2;PMS_P1;PMS_P2;Temp;Humidity;BMP_temperature;BMP_pressure;BME280_temperature;BME280_humidity;BME280_pressure;Samples;Min_cycle;Max_cycle;Signal;HPM_P1;HPM_P2
2021/08/21 00:01:04;;;;;;;2.60;1.80;;;;;;;;;;5047763;28;20287;-84
2021/08/21 00:03:29;;;;;;;2.70;2.50;;;;;;;;;;5058195;28;20199;-84
2021/08/21 00:05:55;;;;;;;2.23;2.03;;;;;;;;;;5042891;28;20246;-82
2021/08/21 00:08:21;;;;;;;2.50;2.10;;;;;;;;;;5050305;28;20434;-84
2021/08/21 00:10:47;;;;;;;2.65;1.85;;;;;;;;;;5048986;28;20952;-83
2021/08/21 00:13:14;;;;;;;2.35;1.85;;;;;;;;;;5046908;28;20684;-85
2021/08/21 00:15:39;;;;;;;3.95;2.08;;;;;;;;;;5048333;28;20661;-85
2021/08/21 00:18:05;;;;;;;1.90;1.80;;;;;;;;;;5043426;28;20222;-84
2021/08/21 00:20:32;;;;;;;2.30;2.10;;;;;;;;;;5046777;28;20443;-84
2021/08/21 00:22:58;;;;;;;2.30;2.03;;;;;;;;;;5055811;28;20176;-84
2021/08/21 00:25:24;;;;;;;2.25;2.00;;;;;;;;;;5052221;28;20185;-83
2021/08/21 00:27:50;;;;;;;2.28;1.80;;;;;;;;;;5048559;28;20213;-82
2021/08/21 00:30:16;;;;;;;2.25;1.83;;;;;;;;;;5044981;28;20204;-82
2021/08/21 00:32:42;;;;;;;2.17;1.98;;;;;;;;;;5045131;28;20530;-83
2021/08/21 00:35:09;;;;;;;2.03;1.85;;;;;;;;;;5048603;28;20255;-84
2021/08/21 00:37:35;;;;;;;2.58;2.38;;;;;;;;;;5048633;28;20196;-84
2021/08/21 00:40:01;;;;;;;2.00;1.90;;;;;;;;;;5048206;28;20181;-84
2021/08/21 00:42:27;;;;;;;2.25;2.03;;;;;;;;;;5055115;28;20863;-84
2021/08/21 00:44:53;;;;;;;2.88;2.17;;;;;;;;;;5058379;28;20186;-84
2021/08/21 00:47:20;;;;;;;1.83;1.70;;;;;;;;;;5048916;28;20181;-84
2021/08/21 00:49:48;;;;;;;2.65;1.65;;;;;;;;;;5046457;28;20494;-84
2021/08/21 00:52:18;;;;;;;2.38;1.90;;;;;;;;;;5049246;28;20189;-84
2021/08/21 00:54:45;;;;;;;1.75;1.65;;;;;;;;;;5047722;28;20189;-85
2021/08/21 00:57:11;;;;;;;1.90;1.80;;;;;;;;;;5043806;28;20182;-84
2021/08/21 00:59:38;;;;;;;2.30;2.10;;;;;;;;;;5060782;28;20181;-84
2021/08/21 01:02:06;;;;;;;2.20;1.85;;;;;;;;;;5048622;28;20205;-84
2021/08/21 01:04:32;;;;;;;1.67;1.58;;;;;;;;;;5046455;28;20269;-85
2021/08/21 01:07:09;;;;;;;2.47;1.90;;;;;;;;;;5046928;28;20314;-84
2021/08/21 01:09:39;;;;;;;4.22;1.85;;;;;;;;;;5046580;28;20185;-84
2021/08/21 01:12:06;;;;;;;2.00;1.80;;;;;;;;;;5043455;28;20186;-84
2021/08/21 01:14:32;;;;;;;3.70;1.65;;;;;;;;;;5058480;28;20199;-84
2021/08/21 01:16:58;;;;;;;1.55;1.45;;;;;;;;;;5046802;28;20185;-84
2021/08/21 01:19:24;;;;;;;2.47;1.77;;;;;;;;;;5045825;28;20468;-85
2021/08/21 01:21:51;;;;;;;2.85;1.85;;;;;;;;;;5050188;28;20493;-84
2021/08/21 01:24:17;;;;;;;2.42;1.80;;;;;;;;;;5057707;28;20182;-84
2021/08/21 01:26:53;;;;;;;2.47;1.88;;;;;;;;;;5061509;28;20219;-84
2021/08/21 01:29:19;;;;;;;1.85;1.75;;;;;;;;;;5064072;28;20172;-84
2021/08/21 01:31:45;;;;;;;5.60;2.60;;;;;;;;;;5047097;28;20657;-84
2021/08/21 01:34:12;;;;;;;2.60;1.88;;;;;;;;;;5047510;28;20436;-84
2021/08/21 01:36:48;;;;;;;1.85;1.70;;;;;;;;;;5045175;28;20191;-84
2021/08/21 01:39:15;;;;;;;2.70;1.95;;;;;;;;;;5044567;28;20189;-84
2021/08/21 01:41:42;;;;;;;2.58;2.00;;;;;;;;;;5043902;28;20194;-83
2021/08/21 01:44:08;;;;;;;2.42;1.95;;;;;;;;;;5046873;28;20174;-84
2021/08/21 01:46:35;;;;;;;1.73;1.50;;;;;;;;;;5046857;28;20178;-84
2021/08/21 01:49:08;;;;;;;2.22;1.70;;;;;;;;;;5047302;28;20251;-84
2021/08/21 01:51:34;;;;;;;3.05;2.00;;;;;;;;;;5041487;28;20185;-84
2021/08/21 01:54:00;;;;;;;5.60;2.37;;;;;;;;;;5057034;28;20304;-83
2021/08/21 01:56:26;;;;;;;2.70;1.70;;;;;;;;;;5047666;28;20428;-83
2021/08/21 01:58:52;;;;;;;2.53;2.33;;;;;;;;;;5046756;28;20182;-84
2021/08/21 02:01:18;;;;;;;1.73;1.55;;;;;;;;;;5053583;28;20212;-83
2021/08/21 02:03:46;;;;;;;2.13;1.85;;;;;;;;;;5055867;28;20192;-84
2021/08/21 02:06:15;;;;;;;3.53;1.67;;;;;;;;;;5042633;28;20182;-84
2021/08/21 02:08:41;;;;;;;2.25;1.95;;;;;;;;;;5045607;28;20174;-84
2021/08/21 02:11:07;;;;;;;1.80;1.70;;;;;;;;;;5055118;28;20555;-85
2021/08/21 02:13:34;;;;;;;2.45;1.90;;;;;;;;;;5042710;28;20276;-85
2021/08/21 02:16:00;;;;;;;2.28;2.00;;;;;;;;;;5048958;28;20185;-84
2021/08/21 02:18:26;;;;;;;1.73;1.63;;;;;;;;;;5057901;28;20228;-84
2021/08/21 02:20:52;;;;;;;1.88;1.70;;;;;;;;;;5040258;28;20474;-84
2021/08/21 02:23:18;;;;;;;3.60;2.10;;;;;;;;;;5057424;28;20193;-82
2021/08/21 02:25:44;;;;;;;2.13;1.90;;;;;;;;;;5045748;28;20444;-85
2021/08/21 02:28:14;;;;;;;2.20;1.52;;;;;;;;;;5046987;28;20188;-84
2021/08/21 02:30:41;;;;;;;1.95;1.85;;;;;;;;;;5054740;28;20183;-84
2021/08/21 02:33:07;;;;;;;2.10;1.52;;;;;;;;;;5041238;28;20202;-85
2021/08/21 02:35:34;;;;;;;2.55;2.10;;;;;;;;;;5045800;28;20185;-83
2021/08/21 02:38:01;;;;;;;1.92;1.80;;;;;;;;;;5046280;28;20636;-84
2021/08/21 02:40:27;;;;;;;2.22;2.03;;;;;;;;;;5053987;28;20204;-84
2021/08/21 02:42:53;;;;;;;1.77;1.67;;;;;;;;;;5053434;28;20190;-84
2021/08/21 02:45:19;;;;;;;1.50;1.40;;;;;;;;;;5044724;28;20181;-84
2021/08/21 02:47:45;;;;;;;1.70;1.60;;;;;;;;;;5057319;28;20195;-84
2021/08/21 02:50:11;;;;;;;2.78;2.10;;;;;;;;;;5046489;28;20178;-84
2021/08/21 02:52:37;;;;;;;3.88;1.90;;;;;;;;;;5036596;28;20196;-84
2021/08/21 02:55:04;;;;;;;2.00;1.58;;;;;;;;;;5042958;28;20193;-84
2021/08/21 02:57:30;;;;;;;3.50;2.20;;;;;;;;;;5055642;28;20189;-83
2021/08/21 02:59:56;;;;;;;2.10;1.48;;;;;;;;;;5038604;28;20221;-84
2021/08/21 03:02:22;;;;;;;2.28;1.67;;;;;;;;;;5046911;28;20209;-84
2021/08/21 03:04:48;;;;;;;1.60;1.50;;;;;;;;;;5045481;28;20457;-84
2021/08/21 03:07:14;;;;;;;1.77;1.33;;;;;;;;;;5045533;28;20185;-84
2021/08/21 03:09:40;;;;;;;2.83;1.70;;;;;;;;;;5044878;28;20247;-83
2021/08/21 03:12:06;;;;;;;2.00;1.77;;;;;;;;;;5040367;28;20456;-84
2021/08/21 03:14:32;;;;;;;1.90;1.65;;;;;;;;;;5043890;28;20793;-84
2021/08/21 03:16:58;;;;;;;1.90;1.57;;;;;;;;;;5047448;28;20177;-84
2021/08/21 03:19:24;;;;;;;4.00;2.03;;;;;;;;;;5045567;28;20480;-85
2021/08/21 03:21:50;;;;;;;2.17;1.87;;;;;;;;;;5043709;28;20472;-84
2021/08/21 03:24:16;;;;;;;2.17;1.93;;;;;;;;;;5041472;28;20436;-83
2021/08/21 03:26:42;;;;;;;1.80;1.70;;;;;;;;;;5055990;28;20414;-83
2021/08/21 03:29:08;;;;;;;3.03;1.80;;;;;;;;;;5046842;28;20587;-84
2021/08/21 03:31:34;;;;;;;1.65;1.55;;;;;;;;;;5045913;28;20659;-85
2021/08/21 03:34:00;;;;;;;1.70;1.60;;;;;;;;;;5046197;28;20189;-84
2021/08/21 03:36:28;;;;;;;2.50;2.00;;;;;;;;;;5045002;28;20196;-84
2021/08/21 03:38:54;;;;;;;2.67;1.85;;;;;;;;;;5038547;28;20449;-84
2021/08/21 03:41:20;;;;;;;2.10;1.90;;;;;;;;;;5046117;28;20207;-85
2021/08/21 03:43:46;;;;;;;1.60;1.50;;;;;;;;;;5045022;28;20490;-83
2021/08/21 03:46:12;;;;;;;2.50;1.90;;;;;;;;;;5045987;28;20458;-84
2021/08/21 03:48:38;;;;;;;3.00;1.93;;;;;;;;;;5045747;28;20438;-84
2021/08/21 03:51:04;;;;;;;2.40;1.90;;;;;;;;;;5041482;28;20519;-84
2021/08/21 03:53:30;;;;;;;2.30;1.90;;;;;;;;;;5044167;28;20440;-84
2021/08/21 03:55:56;;;;;;;4.10;1.47;;;;;;;;;;5045672;28;20424;-83
2021/08/21 03:58:22;;;;;;;2.85;1.90;;;;;;;;;;5045802;28;20436;-84
2021/08/21 04:00:48;;;;;;;2.42;2.22;;;;;;;;;;5048263;28;20596;-84
2021/08/21 04:03:14;;;;;;;2.10;1.63;;;;;;;;;;5056707;28;20189;-85
2021/08/21 04:05:41;;;;;;;2.63;2.17;;;;;;;;;;5045619;28;20747;-84
2021/08/21 04:08:07;;;;;;;1.90;1.75;;;;;;;;;;5073297;28;20442;-84
2021/08/21 04:10:33;;;;;;;1.92;1.80;;;;;;;;;;5049586;28;20185;-84
2021/08/21 04:12:59;;;;;;;2.42;1.95;;;;;;;;;;5048880;28;20189;-85
2021/08/21 04:15:25;;;;;;;1.83;1.63;;;;;;;;;;5046726;28;20257;-84
2021/08/21 04:17:51;;;;;;;2.58;2.08;;;;;;;;;;5059243;28;20185;-84
2021/08/21 04:20:19;;;;;;;1.95;1.67;;;;;;;;;;5064344;28;20206;-85
2021/08/21 04:22:45;;;;;;;2.40;2.20;;;;;;;;;;5050028;28;20200;-83
2021/08/21 04:25:11;;;;;;;2.70;1.77;;;;;;;;;;5049794;28;20192;-84
2021/08/21 04:27:38;;;;;;;2.10;1.92;;;;;;;;;;5057477;28;20671;-83
2021/08/21 04:30:05;;;;;;;1.98;1.88;;;;;;;;;;5059061;28;20241;-85
2021/08/21 04:32:31;;;;;;;3.10;2.80;;;;;;;;;;5045448;28;20181;-84
2021/08/21 04:34:57;;;;;;;1.98;1.80;;;;;;;;;;5047701;28;20558;-84
2021/08/21 04:37:23;;;;;;;2.90;2.10;;;;;;;;;;5055872;28;20200;-84
2021/08/21 04:39:49;;;;;;;2.15;2.05;;;;;;;;;;5056822;28;20431;-84
2021/08/21 04:42:15;;;;;;;2.37;2.17;;;;;;;;;;5045510;28;20230;-83
2021/08/21 04:44:41;;;;;;;3.30;2.50;;;;;;;;;;5044306;28;20421;-84
2021/08/21 04:47:08;;;;;;;1.92;1.70;;;;;;;;;;5058212;28;20176;-85
2021/08/21 04:49:34;;;;;;;2.30;2.10;;;;;;;;;;5049279;28;20188;-85
2021/08/21 04:52:00;;;;;;;2.20;1.85;;;;;;;;;;5046473;28;20208;-84
2021/08/21 04:54:26;;;;;;;2.20;2.10;;;;;;;;;;5045803;28;20189;-84
2021/08/21 04:56:52;;;;;;;2.30;2.10;;;;;;;;;;5042599;28;20461;-84
2021/08/21 04:59:18;;;;;;;2.65;2.10;;;;;;;;;;5049705;28;20423;-85
2021/08/21 05:01:44;;;;;;;2.20;2.10;;;;;;;;;;5048092;28;20217;-85
2021/08/21 05:04:10;;;;;;;2.13;2.00;;;;;;;;;;5049190;28;20458;-84
2021/08/21 05:06:36;;;;;;;5.63;2.40;;;;;;;;;;5058300;28;20481;-82
2021/08/21 05:09:02;;;;;;;2.83;1.80;;;;;;;;;;5041876;28;20188;-83
2021/08/21 05:11:28;;;;;;;2.50;2.30;;;;;;;;;;5048027;28;20451;-83
2021/08/21 05:13:54;;;;;;;2.78;2.15;;;;;;;;;;5070762;28;20450;-85
2021/08/21 05:16:20;;;;;;;2.90;2.60;;;;;;;;;;5051244;28;20250;-84
2021/08/21 05:18:53;;;;;;;2.17;1.98;;;;;;;;;;5047612;28;20466;-85
2021/08/21 05:21:32;;;;;;;3.40;2.90;;;;;;;;;;5042542;28;20224;-84
2021/08/21 05:23:58;;;;;;;2.25;1.92;;;;;;;;;;5026050;28;20179;-83
2021/08/21 05:26:24;;;;;;;2.28;2.08;;;;;;;;;;5055855;28;20203;-85
2021/08/21 05:28:50;;;;;;;2.53;2.10;;;;;;;;;;5047875;28;20199;-84
2021/08/21 05:31:16;;;;;;;2.30;2.10;;;;;;;;;;5047615;28;20197;-85
2021/08/21 05:33:42;;;;;;;2.35;2.17;;;;;;;;;;5044614;28;20677;-81
2021/08/21 05:36:08;;;;;;;6.15;2.33;;;;;;;;;;5054432;28;20204;-84
2021/08/21 05:38:34;;;;;;;3.17;2.50;;;;;;;;;;5059455;28;20264;-84
2021/08/21 05:41:00;;;;;;;2.50;2.30;;;;;;;;;;5048198;28;20195;-84
2021/08/21 05:43:26;;;;;;;2.33;2.10;;;;;;;;;;5047290;28;20538;-85
2021/08/21 05:45:52;;;;;;;3.60;2.30;;;;;;;;;;5045296;28;20186;-84
2021/08/21 05:48:18;;;;;;;2.92;2.30;;;;;;;;;;5058780;28;20467;-84
2021/08/21 05:50:44;;;;;;;2.40;2.20;;;;;;;;;;5060026;28;20216;-82
2021/08/21 05:53:10;;;;;;;2.42;2.22;;;;;;;;;;5048141;28;20417;-85
2021/08/21 05:55:37;;;;;;;2.55;2.28;;;;;;;;;;5043742;28;20216;-84
2021/08/21 05:58:03;;;;;;;2.13;1.73;;;;;;;;;;5047118;28;20188;-84
2021/08/21 06:00:30;;;;;;;2.40;2.10;;;;;;;;;;5046679;28;20244;-83
2021/08/21 06:02:56;;;;;;;2.63;2.20;;;;;;;;;;5026433;28;20197;-84
2021/08/21 06:05:22;;;;;;;2.70;2.50;;;;;;;;;;5063229;28;20169;-84
2021/08/21 06:07:48;;;;;;;2.75;2.55;;;;;;;;;;5053633;28;20458;-84
2021/08/21 06:10:14;;;;;;;2.40;2.20;;;;;;;;;;5058077;28;20184;-84
2021/08/21 06:12:40;;;;;;;2.93;2.30;;;;;;;;;;5055709;28;20192;-84
2021/08/21 06:15:06;;;;;;;3.05;2.70;;;;;;;;;;5043353;28;20444;-84
2021/08/21 06:17:32;;;;;;;2.30;2.10;;;;;;;;;;5045724;28;20180;-84
2021/08/21 06:19:58;;;;;;;3.80;2.95;;;;;;;;;;5047189;28;20225;-84
2021/08/21 06:22:24;;;;;;;2.92;2.13;;;;;;;;;;5046235;28;20255;-84
2021/08/21 06:24:51;;;;;;;2.65;2.28;;;;;;;;;;5048377;28;20185;-84
2021/08/21 06:27:17;;;;;;;3.67;2.85;;;;;;;;;;5057847;28;20204;-83
2021/08/21 06:29:43;;;;;;;3.45;2.40;;;;;;;;;;5043150;28;20201;-82
2021/08/21 06:32:09;;;;;;;3.23;3.03;;;;;;;;;;5056412;28;20181;-84
2021/08/21 06:34:35;;;;;;;3.03;2.83;;;;;;;;;;5056777;28;20454;-84
2021/08/21 06:37:01;;;;;;;4.63;2.50;;;;;;;;;;5052665;28;20479;-84
2021/08/21 06:39:27;;;;;;;3.47;3.13;;;;;;;;;;5058127;28;20187;-84
2021/08/21 06:41:53;;;;;;;3.80;2.90;;;;;;;;;;5041013;28;20205;-83
2021/08/21 06:44:19;;;;;;;3.45;2.90;;;;;;;;;;5059342;28;20420;-84
2021/08/21 06:46:46;;;;;;;3.60;3.30;;;;;;;;;;5045424;28;20201;-85
2021/08/21 06:49:12;;;;;;;3.83;3.10;;;;;;;;;;5046861;28;20185;-84
2021/08/21 06:51:38;;;;;;;4.23;3.30;;;;;;;;;;5054844;28;20575;-84
2021/08/21 06:54:04;;;;;;;3.17;2.60;;;;;;;;;;5040479;28;20777;-85
2021/08/21 06:56:30;;;;;;;3.67;2.90;;;;;;;;;;5045737;28;20184;-83
2021/08/21 06:58:56;;;;;;;2.50;2.30;;;;;;;;;;5057680;28;20261;-84
2021/08/21 07:01:22;;;;;;;3.00;2.80;;;;;;;;;;5041886;28;20283;-84
2021/08/21 07:03:48;;;;;;;3.20;3.00;;;;;;;;;;5045052;28;20431;-84
2021/08/21 07:06:14;;;;;;;3.45;2.80;;;;;;;;;;5041515;28;21018;-84
2021/08/21 07:08:40;;;;;;;3.50;3.20;;;;;;;;;;5042836;28;20173;-83
2021/08/21 07:11:06;;;;;;;5.10;2.87;;;;;;;;;;5046769;28;20432;-83
2021/08/21 07:13:32;;;;;;;4.30;3.60;;;;;;;;;;5044780;28;20436;-82
2021/08/21 07:15:58;;;;;;;3.10;2.90;;;;;;;;;;5044799;28;20444;-84
2021/08/21 07:18:24;;;;;;;2.93;2.73;;;;;;;;;;5044207;28;20254;-84
2021/08/21 07:20:50;;;;;;;5.80;3.57;;;;;;;;;;5041152;28;20488;-83
2021/08/21 07:23:16;;;;;;;6.03;3.05;;;;;;;;;;5046698;28;20796;-84
2021/08/21 07:25:44;;;;;;;7.60;4.47;;;;;;;;;;5045522;28;20598;-83
2021/08/21 07:28:10;;;;;;;4.38;3.80;;;;;;;;;;5045647;28;20269;-83
2021/08/21 07:30:37;;;;;;;4.25;3.35;;;;;;;;;;5047039;28;20286;-83
2021/08/21 07:33:03;;;;;;;3.47;3.17;;;;;;;;;;5053891;28;20277;-84
2021/08/21 07:35:29;;;;;;;3.60;3.25;;;;;;;;;;5057183;28;20180;-83
2021/08/21 07:37:55;;;;;;;6.60;3.53;;;;;;;;;;5045405;28;20174;-84
2021/08/21 07:40:21;;;;;;;3.22;2.88;;;;;;;;;;5056271;28;20714;-84
2021/08/21 07:42:47;;;;;;;3.60;3.07;;;;;;;;;;5051152;28;20216;-84
2021/08/21 07:45:13;;;;;;;3.03;2.77;;;;;;;;;;5046905;28;20448;-84
2021/08/21 07:47:39;;;;;;;3.60;3.13;;;;;;;;;;5063715;28;20411;-84
2021/08/21 07:50:06;;;;;;;3.38;2.72;;;;;;;;;;5050323;28;20633;-84
2021/08/21 07:52:32;;;;;;;8.68;4.03;;;;;;;;;;5049424;28;20186;-84
2021/08/21 07:54:58;;;;;;;2.83;2.53;;;;;;;;;;5048193;28;20190;-84
2021/08/21 07:57:24;;;;;;;4.10;3.70;;;;;;;;;;5048295;28;20504;-84
2021/08/21 07:59:50;;;;;;;3.25;2.90;;;;;;;;;;5045243;28;21186;-84
2021/08/21 08:02:16;;;;;;;4.25;3.17;;;;;;;;;;5050290;28;20216;-85
2021/08/21 08:04:42;;;;;;;3.83;3.17;;;;;;;;;;5057593;28;20218;-85
2021/08/21 08:07:08;;;;;;;2.97;2.77;;;;;;;;;;5054794;28;20194;-85
2021/08/21 08:09:34;;;;;;;3.00;2.80;;;;;;;;;;5049381;28;20429;-85
2021/08/21 08:12:00;;;;;;;2.95;2.75;;;;;;;;;;5042963;28;20465;-85
2021/08/21 08:14:26;;;;;;;3.10;2.90;;;;;;;;;;5048796;28;20173;-83
2021/08/21 08:16:52;;;;;;;2.80;2.58;;;;;;;;;;5048103;28;20469;-85
2021/08/21 08:19:18;;;;;;;8.35;2.65;;;;;;;;;;5049565;28;20234;-86
2021/08/21 08:21:44;;;;;;;3.00;2.80;;;;;;;;;;5047027;28;20201;-85
2021/08/21 08:24:12;;;;;;;3.45;2.70;;;;;;;;;;5046403;28;20240;-85
2021/08/21 08:26:38;;;;;;;5.40;2.90;;;;;;;;;;5063138;28;20262;-84
2021/08/21 08:29:04;;;;;;;4.03;2.70;;;;;;;;;;5049493;28;20220;-84
2021/08/21 08:31:30;;;;;;;3.40;3.10;;;;;;;;;;5048499;28;20440;-85
2021/08/21 08:33:56;;;;;;;3.20;2.70;;;;;;;;;;5047039;28;20422;-86
2021/08/21 08:36:22;;;;;;;2.87;2.67;;;;;;;;;;5045246;28;20439;-86
2021/08/21 08:38:49;;;;;;;3.17;2.93;;;;;;;;;;5043703;28;20429;-86
2021/08/21 08:41:16;;;;;;;4.63;3.20;;;;;;;;;;5064675;28;20523;-84
2021/08/21 08:43:42;;;;;;;4.20;2.80;;;;;;;;;;5048595;28;20441;-86
2021/08/21 08:46:09;;;;;;;2.87;2.60;;;;;;;;;;5048502;28;20448;-84
2021/08/21 08:48:37;;;;;;;4.20;2.20;;;;;;;;;;5048204;28;20417;-85
2021/08/21 08:51:03;;;;;;;2.70;2.50;;;;;;;;;;5042347;28;20435;-84
2021/08/21 08:53:29;;;;;;;8.40;3.07;;;;;;;;;;5048678;28;20417;-84
2021/08/21 08:55:55;;;;;;;5.03;3.13;;;;;;;;;;5048093;28;20407;-85
2021/08/21 08:58:21;;;;;;;2.87;2.40;;;;;;;;;;5048565;28;20406;-86
2021/08/21 09:00:47;;;;;;;2.87;2.67;;;;;;;;;;5047489;28;20964;-82
2021/08/21 09:03:21;;;;;;;2.70;2.50;;;;;;;;;;5046273;28;20496;-84
2021/08/21 09:05:48;;;;;;;2.90;2.70;;;;;;;;;;5042509;28;20423;-84
2021/08/21 09:08:24;;;;;;;3.20;2.90;;;;;;;;;;5048823;28;20450;-84
2021/08/21 09:10:50;;;;;;;2.80;2.60;;;;;;;;;;5046859;28;20422;-84
2021/08/21 09:13:17;;;;;;;3.60;3.20;;;;;;;;;;5047813;28;20418;-84
2021/08/21 09:15:44;;;;;;;5.07;2.97;;;;;;;;;;5045702;28;20439;-84
2021/08/21 09:18:12;;;;;;;3.27;2.97;;;;;;;;;;5044701;28;20478;-85
2021/08/21 09:20:48;;;;;;;3.13;2.87;;;;;;;;;;5044923;28;20395;-84
2021/08/21 09:23:23;;;;;;;3.60;2.90;;;;;;;;;;5061285;28;20990;-85
2021/08/21 09:26:04;;;;;;;3.10;2.80;;;;;;;;;;5046925;28;20444;-84
2021/08/21 09:28:30;;;;;;;2.80;2.60;;;;;;;;;;5045357;28;20447;-84
2021/08/21 09:31:04;;;;;;;3.30;2.90;;;;;;;;;;5047707;28;20506;-84
2021/08/21 09:33:30;;;;;;;3.53;3.23;;;;;;;;;;5047234;28;20410;-85
2021/08/21 09:35:56;;;;;;;2.47;2.30;;;;;;;;;;5042013;28;20408;-84
2021/08/21 09:38:23;;;;;;;3.07;2.77;;;;;;;;;;5048140;28;20950;-84
2021/08/21 09:40:49;;;;;;;3.10;2.80;;;;;;;;;;5047918;28;20487;-85
2021/08/21 09:43:23;;;;;;;3.37;3.07;;;;;;;;;;5045090;28;20413;-84
2021/08/21 09:45:49;;;;;;;3.20;3.00;;;;;;;;;;5047045;28;20450;-85
2021/08/21 09:48:15;;;;;;;3.03;2.73;;;;;;;;;;5042489;28;20433;-84
2021/08/21 09:50:42;;;;;;;3.23;2.93;;;;;;;;;;5044904;28;20432;-84
2021/08/21 09:53:09;;;;;;;4.20;3.13;;;;;;;;;;5059233;28;20421;-85
2021/08/21 09:55:36;;;;;;;3.33;3.03;;;;;;;;;;5048755;28;20425;-85
2021/08/21 09:58:03;;;;;;;3.03;2.67;;;;;;;;;;5053101;28;20928;-85
2021/08/21 10:00:29;;;;;;;3.10;2.90;;;;;;;;;;5056214;28;20506;-85
2021/08/21 10:02:56;;;;;;;3.73;2.87;;;;;;;;;;5042638;28;20470;-84
2021/08/21 10:05:23;;;;;;;3.13;2.93;;;;;;;;;;5047432;28;20472;-84
2021/08/21 10:07:56;;;;;;;2.93;2.73;;;;;;;;;;5057217;28;20444;-85
2021/08/21 10:10:23;;;;;;;3.00;2.80;;;;;;;;;;5054167;28;20412;-84
2021/08/21 10:12:53;;;;;;;3.37;3.07;;;;;;;;;;5054163;28;20411;-85
2021/08/21 10:15:20;;;;;;;3.07;2.77;;;;;;;;;;5057719;28;22384;-84
2021/08/21 10:17:47;;;;;;;4.13;2.73;;;;;;;;;;5041340;28;20676;-84
2021/08/21 10:20:14;;;;;;;3.13;2.87;;;;;;;;;;5048054;28;20420;-85
2021/08/21 10:22:41;;;;;;;3.20;3.00;;;;;;;;;;5046315;28;20496;-85
2021/08/21 10:25:08;;;;;;;2.90;2.70;;;;;;;;;;5046403;28;20433;-86
2021/08/21 10:27:37;;;;;;;2.90;2.70;;;;;;;;;;5044288;28;20446;-84
2021/08/21 10:30:03;;;;;;;3.40;3.10;;;;;;;;;;5043159;28;20529;-84
2021/08/21 10:32:33;;;;;;;2.63;2.43;;;;;;;;;;5062942;28;20420;-84
2021/08/21 10:34:59;;;;;;;3.00;2.50;;;;;;;;;;5047086;28;20520;-83
2021/08/21 10:37:32;;;;;;;2.60;2.40;;;;;;;;;;5046299;28;20954;-84
2021/08/21 10:39:59;;;;;;;3.67;3.17;;;;;;;;;;5046453;28;20501;-84
2021/08/21 10:42:34;;;;;;;2.93;2.73;;;;;;;;;;5045466;28;20474;-85
2021/08/21 10:45:00;;;;;;;3.30;3.10;;;;;;;;;;5055278;28;20455;-83
2021/08/21 10:47:33;;;;;;;3.17;2.90;;;;;;;;;;5058358;28;20438;-84
2021/08/21 10:50:00;;;;;;;3.50;3.00;;;;;;;;;;5045374;28;20425;-84
2021/08/21 10:52:44;;;;;;;2.93;2.73;;;;;;;;;;5052733;28;20444;-85
2021/08/21 10:55:21;;;;;;;4.43;3.10;;;;;;;;;;5039032;28;20449;-85
2021/08/21 10:57:57;;;;;;;2.77;2.57;;;;;;;;;;5054973;28;20408;-84
2021/08/21 11:00:53;;;;;;;3.43;3.13;;;;;;;;;;5044795;28;20431;-83
2021/08/21 11:03:22;;;;;;;3.77;3.40;;;;;;;;;;5034449;28;20447;-85
2021/08/21 11:05:54;;;;;;;5.03;2.90;;;;;;;;;;5041524;28;34554;-85
2021/08/21 11:08:21;;;;;;;3.50;3.20;;;;;;;;;;5048641;28;20411;-85
2021/08/21 11:10:47;;;;;;;3.03;2.83;;;;;;;;;;5045402;28;20442;-85
2021/08/21 11:13:33;;;;;;;3.57;3.27;;;;;;;;;;5046598;28;20439;-85
2021/08/21 11:16:00;;;;;;;3.73;3.20;;;;;;;;;;5053714;28;20446;-86
2021/08/21 11:18:27;;;;;;;3.47;3.17;;;;;;;;;;5057315;28;20464;-86
2021/08/21 11:20:53;;;;;;;3.20;3.00;;;;;;;;;;5060757;28;20448;-85
2021/08/21 11:23:19;;;;;;;3.30;3.00;;;;;;;;;;5065544;28;20439;-85
2021/08/21 11:25:45;;;;;;;7.73;4.20;;;;;;;;;;5050107;28;20557;-85
2021/08/21 11:28:20;;;;;;;5.83;3.20;;;;;;;;;;5055685;28;20431;-84
2021/08/21 11:31:06;;;;;;;3.20;2.90;;;;;;;;;;5056403;28;20435;-86
2021/08/21 11:33:33;;;;;;;3.50;3.20;;;;;;;;;;5060874;28;20441;-84
2021/08/21 11:35:59;;;;;;;3.47;3.13;;;;;;;;;;5043672;28;20448;-85
2021/08/21 11:38:27;;;;;;;3.40;3.10;;;;;;;;;;5074179;28;20411;-85
2021/08/21 11:40:54;;;;;;;2.90;2.67;;;;;;;;;;5047747;28;20427;-85
2021/08/21 11:43:24;;;;;;;3.10;2.80;;;;;;;;;;5049361;28;20451;-84
2021/08/21 11:45:51;;;;;;;4.70;3.30;;;;;;;;;;5049214;28;20480;-85
2021/08/21 11:48:17;;;;;;;3.57;3.27;;;;;;;;;;5047462;28;20564;-85
2021/08/21 11:50:50;;;;;;;3.43;3.20;;;;;;;;;;5049895;28;20482;-86
2021/08/21 11:53:23;;;;;;;3.70;3.40;;;;;;;;;;5051152;28;20442;-87
2021/08/21 11:55:55;;;;;;;5.87;3.50;;;;;;;;;;5049197;28;20452;-85
2021/08/21 11:58:31;;;;;;;3.17;2.87;;;;;;;;;;5047713;28;20502;-85
2021/08/21 12:01:08;;;;;;;3.27;3.07;;;;;;;;;;5046693;28;20436;-85
2021/08/21 12:06:35;;;;;;;4.20;3.50;;;;;;;;;;5045482;28;20447;-85
2021/08/21 12:09:10;;;;;;;2.90;2.43;;;;;;;;;;5027265;28;20444;-84
2021/08/21 12:11:37;;;;;;;4.30;4.00;;;;;;;;;;5047287;28;20419;-84
2021/08/21 12:14:04;;;;;;;3.37;2.93;;;;;;;;;;5050223;28;20475;-86
2021/08/21 12:16:31;;;;;;;3.00;2.80;;;;;;;;;;5047461;28;20476;-86
2021/08/21 12:18:57;;;;;;;2.87;2.67;;;;;;;;;;5052545;28;20463;-85
2021/08/21 12:21:24;;;;;;;2.90;2.70;;;;;;;;;;5058177;28;20460;-85
2021/08/21 12:23:51;;;;;;;3.17;2.97;;;;;;;;;;5043453;28;20441;-85
2021/08/21 12:26:32;;;;;;;3.47;3.00;;;;;;;;;;5049559;28;20442;-84
2021/08/21 12:28:58;;;;;;;3.53;3.23;;;;;;;;;;5043630;28;20408;-86
2021/08/21 12:31:32;;;;;;;3.30;3.00;;;;;;;;;;5047812;28;20506;-85
2021/08/21 12:33:58;;;;;;;3.37;3.07;;;;;;;;;;5048603;28;20432;-85
2021/08/21 12:36:25;;;;;;;3.20;2.90;;;;;;;;;;5048095;28;20449;-86
2021/08/21 12:39:00;;;;;;;3.37;3.07;;;;;;;;;;5042719;28;20410;-85
2021/08/21 12:41:26;;;;;;;3.07;2.87;;;;;;;;;;5056973;28;20458;-85
2021/08/21 12:44:06;;;;;;;3.30;3.00;;;;;;;;;;5048231;28;20497;-85
2021/08/21 12:46:32;;;;;;;3.20;2.87;;;;;;;;;;5048436;28;20440;-86
2021/08/21 12:49:09;;;;;;;2.93;2.73;;;;;;;;;;5048328;28;20466;-85
2021/08/21 12:51:42;;;;;;;2.50;2.30;;;;;;;;;;5047140;28;21032;-84
2021/08/21 12:54:09;;;;;;;2.67;2.47;;;;;;;;;;5042855;28;20446;-86
2021/08/21 12:56:36;;;;;;;3.27;3.00;;;;;;;;;;5063095;28;20432;-85
2021/08/21 12:59:08;;;;;;;3.30;3.00;;;;;;;;;;5048637;28;20425;-85
2021/08/21 13:01:34;;;;;;;2.73;2.00;;;;;;;;;;5052010;28;20472;-85
2021/08/21 13:04:04;;;;;;;2.57;2.37;;;;;;;;;;5059422;28;20817;-85
2021/08/21 13:06:30;;;;;;;2.83;2.63;;;;;;;;;;5056549;28;20476;-85
2021/08/21 13:08:56;;;;;;;2.93;2.50;;;;;;;;;;5042345;28;20946;-84
2021/08/21 13:11:22;;;;;;;2.57;2.30;;;;;;;;;;5050753;28;20482;-84
2021/08/21 13:13:48;;;;;;;2.70;2.50;;;;;;;;;;5058057;28;20444;-86
2021/08/21 13:16:14;;;;;;;4.33;2.50;;;;;;;;;;5058934;28;20477;-85
2021/08/21 13:18:40;;;;;;;2.77;2.57;;;;;;;;;;5056340;28;20473;-83
2021/08/21 13:21:06;;;;;;;3.30;3.00;;;;;;;;;;5041185;28;20465;-84
2021/08/21 13:23:32;;;;;;;3.40;3.17;;;;;;;;;;5046906;28;20455;-84
2021/08/21 13:25:59;;;;;;;3.07;2.60;;;;;;;;;;5047226;28;20420;-85
2021/08/21 13:28:27;;;;;;;3.33;2.73;;;;;;;;;;5046223;28;20507;-84
2021/08/21 13:30:53;;;;;;;3.80;2.40;;;;;;;;;;5047654;28;20443;-85
2021/08/21 13:33:19;;;;;;;2.33;2.23;;;;;;;;;;5045372;28;20450;-86
2021/08/21 13:35:45;;;;;;;2.70;2.50;;;;;;;;;;5042311;28;20409;-85
2021/08/21 13:38:12;;;;;;;2.40;2.20;;;;;;;;;;5048572;28;20408;-85
2021/08/21 13:40:38;;;;;;;3.60;3.30;;;;;;;;;;5045903;28;20493;-85
2021/08/21 13:43:04;;;;;;;2.43;2.23;;;;;;;;;;5047081;28;20499;-84
2021/08/21 13:45:30;;;;;;;2.50;2.30;;;;;;;;;;5047331;28;20858;-84
2021/08/21 13:47:56;;;;;;;3.00;2.60;;;;;;;;;;5041853;28;20426;-85
2021/08/21 13:50:22;;;;;;;4.17;2.40;;;;;;;;;;5047416;28;20447;-85
2021/08/21 13:52:48;;;;;;;2.60;2.40;;;;;;;;;;5046877;28;20478;-85
2021/08/21 13:55:14;;;;;;;2.27;2.07;;;;;;;;;;5052499;28;20536;-85
2021/08/21 13:57:40;;;;;;;2.37;2.17;;;;;;;;;;5055544;28;20453;-84
2021/08/21 14:00:07;;;;;;;2.77;2.10;;;;;;;;;;5043191;28;20445;-86
2021/08/21 14:02:34;;;;;;;2.57;2.37;;;;;;;;;;5045869;28;20799;-85
2021/08/21 14:05:00;;;;;;;2.53;2.33;;;;;;;;;;5054751;28;20417;-85
2021/08/21 14:07:26;;;;;;;2.90;2.70;;;;;;;;;;5050194;28;20443;-85
2021/08/21 14:09:51;;;;;;;2.40;2.20;;;;;;;;;;5045887;28;20414;-85
2021/08/21 14:12:18;;;;;;;3.00;2.70;;;;;;;;;;5041687;28;20436;-84
2021/08/21 14:14:50;;;;;;;2.90;2.40;;;;;;;;;;5059042;28;20522;-85
2021/08/21 14:17:16;;;;;;;2.90;2.63;;;;;;;;;;5047357;28;20451;-84
2021/08/21 14:19:42;;;;;;;2.90;2.70;;;;;;;;;;5045506;28;20889;-84
2021/08/21 14:22:08;;;;;;;2.80;2.60;;;;;;;;;;5046943;28;20483;-85
2021/08/21 14:24:34;;;;;;;3.10;2.80;;;;;;;;;;5046310;28;20460;-84
2021/08/21 14:27:01;;;;;;;3.93;2.93;;;;;;;;;;5042338;28;20517;-85
2021/08/21 14:29:27;;;;;;;3.67;3.07;;;;;;;;;;5046793;28;20960;-84
2021/08/21 14:31:53;;;;;;;2.67;2.43;;;;;;;;;;5046942;28;20990;-85
2021/08/21 14:34:19;;;;;;;3.30;2.90;;;;;;;;;;5044699;28;20438;-85
2021/08/21 14:36:45;;;;;;;2.80;2.60;;;;;;;;;;5046108;28;20442;-85
2021/08/21 14:39:11;;;;;;;2.50;2.30;;;;;;;;;;5042194;28;20927;-86
2021/08/21 14:41:37;;;;;;;3.20;2.53;;;;;;;;;;5045434;28;20494;-84
2021/08/21 14:44:05;;;;;;;2.97;2.50;;;;;;;;;;5047500;28;20434;-85
2021/08/21 14:46:31;;;;;;;3.00;2.53;;;;;;;;;;5045837;28;20444;-85